sensor_id;sensor_type;location;lat;lon;timestamp;P1;durP1;ratioP1;P2;durP2;ratioP2
38085;SDS011;23896;50.678;10.924;2022-12-07T00:02:08;2.67;;;2.17;;
38085;SDS011;23896;50.678;10.924;2022-12-07T00:04:35;1.92;;;1.73;;
38085;SDS011;23896;50.678;10.924;2022-12-07T00:07:01;2.40;;;1.90;;
38085;SDS011;23896;50.678;10.924;2022-12-07T00:09:29;1.73;;;1.63;;
38085;SDS011;23896;50.678;10.924;2022-12-07T00:11:55;3.10;;;1.98;;
38085;SDS011;23896;50.678;10.924;2022-12-07T00:17:26;2.93;;;1.70;;
38085;SDS011;23896;50.678;10.924;2022-12-07T00:19:52;2.00;;;1.80;;
38085;SDS011;23896;50.678;10.924;2022-12-07T00:22:19;3.58;;;1.67;;
38085;SDS011;23896;50.678;10.924;2022-12-07T00:24:48;2.85;;;1.83;;
38085;SDS011;23896;50.678;10.924;2022-12-07T00:27:15;2.08;;;1.95;;
38085;SDS011;23896;50.678;10.924;2022-12-07T00:29:41;2.28;;;2.05;;
38085;SDS011;23896;50.678;10.924;2022-12-07T00:32:08;1.80;;;1.70;;
38085;SDS011;23896;50.678;10.924;2022-12-07T00:34:35;2.85;;;2.53;;
38085;SDS011;23896;50.678;10.924;2022-12-07T00:37:01;2.70;;;1.90;;
38085;SDS011;23896;50.678;10.924;2022-12-07T00:39:29;4.00;;;2.00;;
38085;SDS011;23896;50.678;10.924;2022-12-07T00:41:57;2.03;;;1.92;;
38085;SDS011;23896;50.678;10.924;2022-12-07T00:44:32;3.60;;;2.60;;
38085;SDS011;23896;50.678;10.924;2022-12-07T00:47:06;2.65;;;2.42;;
38085;SDS011;23896;50.678;10.924;2022-12-07T00:49:39;2.60;;;2.40;;
38085;SDS011;23896;50.678;10.924;2022-12-07T04:15:19;1.00;;;1.00;;
38085;SDS011;23896;50.678;10.924;2022-12-07T04:18:03;1.65;;;1.20;;
38085;SDS011;23896;50.678;10.924;2022-12-07T04:24:14;1.27;;;1.17;;
38085;SDS011;23896;50.678;10.924;2022-12-07T04:26:59;1.45;;;1.35;;
38085;SDS011;23896;50.678;10.924;2022-12-07T04:29:48;1.48;;;1.38;;
38085;SDS011;23896;50.678;10.924;2022-12-07T04:32:34;1.23;;;1.13;;
38085;SDS011;23896;50.678;10.924;2022-12-07T04:35:36;1.40;;;1.30;;
38085;SDS011;23896;50.678;10.924;2022-12-07T04:38:07;1.20;;;1.10;;
38085;SDS011;23896;50.678;10.924;2022-12-07T04:41:22;1.73;;;1.58;;
38085;SDS011;23896;50.678;10.924;2022-12-07T04:43:55;1.77;;;1.67;;
38085;SDS011;23896;50.678;10.924;2022-12-07T04:47:03;1.85;;;1.40;;
38085;SDS011;23896;50.678;10.924;2022-12-07T04:50:03;1.70;;;1.60;;
38085;SDS011;23896;50.678;10.924;2022-12-07T04:55:27;1.63;;;1.52;;
38085;SDS011;23896;50.678;10.924;2022-12-07T04:58:03;1.15;;;1.15;;
38085;SDS011;23896;50.678;10.924;2022-12-07T05:00:32;1.27;;;1.20;;
38085;SDS011;23896;50.678;10.924;2022-12-07T05:03:00;1.25;;;1.15;;
38085;SDS011;23896;50.678;10.924;2022-12-07T05:05:29;1.20;;;1.10;;
38085;SDS011;23896;50.678;10.924;2022-12-07T05:07:56;1.00;;;1.00;;
38085;SDS011;23896;50.678;10.924;2022-12-07T05:10:24;1.27;;;1.17;;
38085;SDS011;23896;50.678;10.924;2022-12-07T05:12:54;1.05;;;1.05;;
38085;SDS011;23896;50.678;10.924;2022-12-07T05:15:20;1.73;;;1.20;;
38085;SDS011;23896;50.678;10.924;2022-12-07T05:17:47;0.95;;;0.95;;
38085;SDS011;23896;50.678;10.924;2022-12-07T05:20:20;1.13;;;1.13;;
38085;SDS011;23896;50.678;10.924;2022-12-07T05:22:50;0.98;;;0.98;;
38085;SDS011;23896;50.678;10.924;2022-12-07T05:25:16;0.80;;;0.80;;
38085;SDS011;23896;50.678;10.924;2022-12-07T05:27:54;1.20;;;1.10;;
38085;SDS011;23896;50.678;10.924;2022-12-07T05:30:22;1.20;;;1.10;;
38085;SDS011;23896;50.678;10.924;2022-12-07T05:32:50;1.30;;;1.20;;
38085;SDS011;23896;50.678;10.924;2022-12-07T05:35:19;0.90;;;0.90;;
38085;SDS011;23896;50.678;10.924;2022-12-07T05:37:49;0.90;;;0.90;;
38085;SDS011;23896;50.678;10.924;2022-12-07T05:40:16;1.48;;;1.17;;
38085;SDS011;23896;50.678;10.924;2022-12-07T05:42:44;0.98;;;0.80;;
38085;SDS011;23896;50.678;10.924;2022-12-07T05:45:11;0.80;;;0.80;;
38085;SDS011;23896;50.678;10.924;2022-12-07T05:47:40;1.17;;;1.08;;
38085;SDS011;23896;50.678;10.924;2022-12-07T05:50:08;1.55;;;1.10;;
38085;SDS011;23896;50.678;10.924;2022-12-07T05:52:35;1.20;;;1.10;;
38085;SDS011;23896;50.678;10.924;2022-12-07T05:55:02;1.50;;;1.40;;
38085;SDS011;23896;50.678;10.924;2022-12-07T05:57:35;1.70;;;1.60;;
38085;SDS011;23896;50.678;10.924;2022-12-07T06:00:03;2.35;;;1.48;;
38085;SDS011;23896;50.678;10.924;2022-12-07T06:02:31;1.67;;;1.58;;
38085;SDS011;23896;50.678;10.924;2022-12-07T06:04:58;1.92;;;1.73;;
38085;SDS011;23896;50.678;10.924;2022-12-07T06:07:24;2.33;;;2.13;;
38085;SDS011;23896;50.678;10.924;2022-12-07T06:09:51;1.77;;;1.67;;
38085;SDS011;23896;50.678;10.924;2022-12-07T06:12:20;1.60;;;1.50;;
38085;SDS011;23896;50.678;10.924;2022-12-07T06:15:04;1.70;;;1.60;;
38085;SDS011;23896;50.678;10.924;2022-12-07T06:17:33;2.83;;;1.67;;
38085;SDS011;23896;50.678;10.924;2022-12-07T06:19:59;1.98;;;1.58;;
38085;SDS011;23896;50.678;10.924;2022-12-07T06:22:26;1.63;;;1.52;;
38085;SDS011;23896;50.678;10.924;2022-12-07T06:24:56;1.50;;;1.40;;
38085;SDS011;23896;50.678;10.924;2022-12-07T06:27:23;1.30;;;1.20;;
38085;SDS011;23896;50.678;10.924;2022-12-07T06:29:50;1.20;;;1.10;;
38085;SDS011;23896;50.678;10.924;2022-12-07T06:32:19;0.98;;;0.98;;
38085;SDS011;23896;50.678;10.924;2022-12-07T06:34:45;1.73;;;1.30;;
38085;SDS011;23896;50.678;10.924;2022-12-07T06:37:12;1.33;;;1.10;;
38085;SDS011;23896;50.678;10.924;2022-12-07T06:39:39;2.33;;;1.33;;
38085;SDS011;23896;50.678;10.924;2022-12-07T06:42:05;1.38;;;1.20;;
38085;SDS011;23896;50.678;10.924;2022-12-07T06:44:32;1.50;;;1.40;;
38085;SDS011;23896;50.678;10.924;2022-12-07T06:46:58;1.58;;;1.48;;
38085;SDS011;23896;50.678;10.924;2022-12-07T06:49:27;2.10;;;1.65;;
38085;SDS011;23896;50.678;10.924;2022-12-07T06:51:55;1.50;;;1.40;;
38085;SDS011;23896;50.678;10.924;2022-12-07T06:54:24;2.25;;;1.85;;
38085;SDS011;23896;50.678;10.924;2022-12-07T06:56:51;2.53;;;2.20;;
38085;SDS011;23896;50.678;10.924;2022-12-07T06:59:17;2.03;;;1.80;;
38085;SDS011;23896;50.678;10.924;2022-12-07T07:01:44;2.53;;;2.33;;
38085;SDS011;23896;50.678;10.924;2022-12-07T07:04:10;4.38;;;2.30;;
38085;SDS011;23896;50.678;10.924;2022-12-07T07:06:36;2.17;;;2.00;;
38085;SDS011;23896;50.678;10.924;2022-12-07T07:09:03;2.65;;;2.35;;
38085;SDS011;23896;50.678;10.924;2022-12-07T07:11:29;2.38;;;2.17;;
38085;SDS011;23896;50.678;10.924;2022-12-07T07:13:56;3.80;;;2.38;;
38085;SDS011;23896;50.678;10.924;2022-12-07T07:16:27;3.03;;;2.72;;
38085;SDS011;23896;50.678;10.924;2022-12-07T07:18:54;3.47;;;2.38;;
38085;SDS011;23896;50.678;10.924;2022-12-07T07:21:21;2.78;;;2.53;;
38085;SDS011;23896;50.678;10.924;2022-12-07T07:23:47;2.78;;;2.58;;
38085;SDS011;23896;50.678;10.924;2022-12-07T07:26:14;2.10;;;2.00;;
38085;SDS011;23896;50.678;10.924;2022-12-07T07:28:40;2.67;;;1.90;;
38085;SDS011;23896;50.678;10.924;2022-12-07T07:31:07;2.95;;;1.80;;
38085;SDS011;23896;50.678;10.924;2022-12-07T07:33:35;1.75;;;1.65;;
38085;SDS011;23896;50.678;10.924;2022-12-07T07:36:01;1.75;;;1.52;;
38085;SDS011;23896;50.678;10.924;2022-12-07T07:38:28;1.77;;;1.67;;
38085;SDS011;23896;50.678;10.924;2022-12-07T07:40:54;1.83;;;1.73;;
38085;SDS011;23896;50.678;10.924;2022-12-07T07:43:27;2.22;;;1.85;;
38085;SDS011;23896;50.678;10.924;2022-12-07T07:45:57;1.88;;;1.77;;
38085;SDS011;23896;50.678;10.924;2022-12-07T07:48:25;2.92;;;1.63;;
38085;SDS011;23896;50.678;10.924;2022-12-07T07:50:52;3.63;;;2.00;;
38085;SDS011;23896;50.678;10.924;2022-12-07T07:53:18;2.80;;;2.40;;
38085;SDS011;23896;50.678;10.924;2022-12-07T07:55:52;3.95;;;2.95;;
38085;SDS011;23896;50.678;10.924;2022-12-07T07:58:19;4.05;;;2.90;;
38085;SDS011;23896;50.678;10.924;2022-12-07T08:00:46;2.50;;;2.30;;
38085;SDS011;23896;50.678;10.924;2022-12-07T08:03:12;3.83;;;3.17;;
38085;SDS011;23896;50.678;10.924;2022-12-07T08:05:39;2.92;;;2.10;;
38085;SDS011;23896;50.678;10.924;2022-12-07T08:08:07;3.20;;;1.70;;
38085;SDS011;23896;50.678;10.924;2022-12-07T08:10:34;3.33;;;1.95;;
38085;SDS011;23896;50.678;10.924;2022-12-07T08:13:05;2.53;;;2.33;;
38085;SDS011;23896;50.678;10.924;2022-12-07T08:15:44;2.58;;;2.38;;
38085;SDS011;23896;50.678;10.924;2022-12-07T08:18:16;2.45;;;2.22;;
38085;SDS011;23896;50.678;10.924;2022-12-07T08:20:44;3.17;;;2.42;;
38085;SDS011;23896;50.678;10.924;2022-12-07T08:23:12;3.05;;;2.38;;
38085;SDS011;23896;50.678;10.924;2022-12-07T08:25:54;3.33;;;2.30;;
38085;SDS011;23896;50.678;10.924;2022-12-07T08:28:23;3.47;;;2.30;;
38085;SDS011;23896;50.678;10.924;2022-12-07T08:30:50;2.55;;;2.35;;
38085;SDS011;23896;50.678;10.924;2022-12-07T08:33:17;2.38;;;1.83;;
38085;SDS011;23896;50.678;10.924;2022-12-07T08:35:47;3.22;;;1.85;;
38085;SDS011;23896;50.678;10.924;2022-12-07T08:38:14;4.75;;;1.70;;
38085;SDS011;23896;50.678;10.924;2022-12-07T08:40:43;2.33;;;2.10;;
38085;SDS011;23896;50.678;10.924;2022-12-07T08:48:28;5.88;;;2.65;;
38085;SDS011;23896;50.678;10.924;2022-12-07T08:54:12;5.30;;;2.97;;
38085;SDS011;23896;50.678;10.924;2022-12-07T08:56:40;3.00;;;2.70;;
38085;SDS011;23896;50.678;10.924;2022-12-07T08:59:07;3.15;;;2.20;;
38085;SDS011;23896;50.678;10.924;2022-12-07T09:01:38;14.57;;;2.92;;
38085;SDS011;23896;50.678;10.924;2022-12-07T09:04:05;2.83;;;2.33;;
38085;SDS011;23896;50.678;10.924;2022-12-07T09:06:34;3.92;;;2.38;;
38085;SDS011;23896;50.678;10.924;2022-12-07T09:09:12;5.45;;;2.20;;
38085;SDS011;23896;50.678;10.924;2022-12-07T10:08:14;2.88;;;1.45;;
38085;SDS011;23896;50.678;10.924;2022-12-07T10:36:53;4.18;;;2.35;;
38085;SDS011;23896;50.678;10.924;2022-12-07T10:47:43;1.67;;;1.42;;
38085;SDS011;23896;50.678;10.924;2022-12-07T10:53:13;2.63;;;1.45;;
38085;SDS011;23896;50.678;10.924;2022-12-07T10:56:08;3.47;;;1.60;;
38085;SDS011;23896;50.678;10.924;2022-12-07T11:38:28;3.40;;;1.38;;
38085;SDS011;23896;50.678;10.924;2022-12-07T11:41:02;1.60;;;1.27;;
38085;SDS011;23896;50.678;10.924;2022-12-07T11:49:13;2.03;;;1.50;;
38085;SDS011;23896;50.678;10.924;2022-12-07T11:51:51;3.40;;;1.02;;
38085;SDS011;23896;50.678;10.924;2022-12-07T11:54:43;3.17;;;1.00;;
38085;SDS011;23896;50.678;10.924;2022-12-07T11:57:33;4.25;;;1.25;;
38085;SDS011;23896;50.678;10.924;2022-12-07T12:00:11;2.85;;;1.20;;
38085;SDS011;23896;50.678;10.924;2022-12-07T13:26:21;2.38;;;1.42;;
38085;SDS011;23896;50.678;10.924;2022-12-07T13:29:12;1.42;;;1.00;;
38085;SDS011;23896;50.678;10.924;2022-12-07T13:34:47;0.98;;;0.82;;
38085;SDS011;23896;50.678;10.924;2022-12-07T13:37:30;2.78;;;1.80;;
38085;SDS011;23896;50.678;10.924;2022-12-07T13:40:17;1.83;;;1.00;;
38085;SDS011;23896;50.678;10.924;2022-12-07T13:42:47;2.97;;;1.30;;
38085;SDS011;23896;50.678;10.924;2022-12-07T13:45:30;1.27;;;1.05;;
38085;SDS011;23896;50.678;10.924;2022-12-07T16:13:52;2.10;;;1.50;;
38085;SDS011;23896;50.678;10.924;2022-12-07T16:16:19;3.30;;;1.70;;
38085;SDS011;23896;50.678;10.924;2022-12-07T16:18:50;4.45;;;1.27;;
38085;SDS011;23896;50.678;10.924;2022-12-07T16:21:18;3.38;;;1.58;;
38085;SDS011;23896;50.678;10.924;2022-12-07T16:23:48;2.40;;;1.90;;
38085;SDS011;23896;50.678;10.924;2022-12-07T16:26:21;2.78;;;2.10;;
38085;SDS011;23896;50.678;10.924;2022-12-07T16:29:00;3.97;;;1.73;;
38085;SDS011;23896;50.678;10.924;2022-12-07T16:31:29;2.45;;;1.70;;
38085;SDS011;23896;50.678;10.924;2022-12-07T16:34:03;2.65;;;1.52;;
38085;SDS011;23896;50.678;10.924;2022-12-07T16:36:31;2.45;;;1.80;;
38085;SDS011;23896;50.678;10.924;2022-12-07T16:38:58;2.65;;;1.70;;
38085;SDS011;23896;50.678;10.924;2022-12-07T16:41:32;4.60;;;3.00;;
38085;SDS011;23896;50.678;10.924;2022-12-07T16:44:01;4.30;;;2.40;;
38085;SDS011;23896;50.678;10.924;2022-12-07T16:46:37;3.95;;;2.67;;
38085;SDS011;23896;50.678;10.924;2022-12-07T16:49:06;2.80;;;2.15;;
38085;SDS011;23896;50.678;10.924;2022-12-07T16:51:33;3.15;;;2.15;;
38085;SDS011;23896;50.678;10.924;2022-12-07T16:54:02;2.30;;;2.00;;
38085;SDS011;23896;50.678;10.924;2022-12-07T16:56:36;4.75;;;2.05;;
38085;SDS011;23896;50.678;10.924;2022-12-07T17:02:10;3.05;;;2.20;;
38085;SDS011;23896;50.678;10.924;2022-12-07T17:04:38;3.92;;;1.85;;
38085;SDS011;23896;50.678;10.924;2022-12-07T17:07:10;4.63;;;2.35;;
38085;SDS011;23896;50.678;10.924;2022-12-07T17:09:40;4.05;;;2.38;;
38085;SDS011;23896;50.678;10.924;2022-12-07T17:12:07;3.17;;;2.40;;
38085;SDS011;23896;50.678;10.924;2022-12-07T17:14:35;4.03;;;2.38;;
38085;SDS011;23896;50.678;10.924;2022-12-07T17:17:23;3.55;;;2.42;;
38085;SDS011;23896;50.678;10.924;2022-12-07T17:20:01;2.33;;;2.00;;
38085;SDS011;23896;50.678;10.924;2022-12-07T17:22:31;3.70;;;2.58;;
38085;SDS011;23896;50.678;10.924;2022-12-07T17:25:03;5.80;;;2.80;;
38085;SDS011;23896;50.678;10.924;2022-12-07T17:27:33;3.65;;;2.25;;
38085;SDS011;23896;50.678;10.924;2022-12-07T17:30:02;3.28;;;2.67;;
38085;SDS011;23896;50.678;10.924;2022-12-07T22:22:52;4.20;;;2.72;;
38085;SDS011;23896;50.678;10.924;2022-12-07T22:25:22;2.45;;;2.25;;
38085;SDS011;23896;50.678;10.924;2022-12-07T22:27:52;2.88;;;2.53;;
38085;SDS011;23896;50.678;10.924;2022-12-07T22:30:25;3.35;;;2.90;;
38085;SDS011;23896;50.678;10.924;2022-12-07T22:32:55;3.88;;;2.65;;
38085;SDS011;23896;50.678;10.924;2022-12-07T22:35:24;3.75;;;2.17;;
38085;SDS011;23896;50.678;10.924;2022-12-07T22:37:56;2.38;;;2.15;;
38085;SDS011;23896;50.678;10.924;2022-12-07T23:08:57;3.33;;;2.10;;
38085;SDS011;23896;50.678;10.924;2022-12-07T23:11:27;5.32;;;2.25;;
38085;SDS011;23896;50.678;10.924;2022-12-07T23:14:14;4.63;;;1.90;;
38085;SDS011;23896;50.678;10.924;2022-12-07T23:16:41;4.40;;;2.45;;
38085;SDS011;23896;50.678;10.924;2022-12-07T23:19:08;2.22;;;2.03;;
38085;SDS011;23896;50.678;10.924;2022-12-07T23:21:55;2.70;;;2.38;;
38085;SDS011;23896;50.678;10.924;2022-12-07T23:51:34;3.72;;;2.00;;
38085;SDS011;23896;50.678;10.924;2022-12-07T23:56:42;2.50;;;1.92;;
38085;SDS011;23896;50.678;10.924;2022-12-07T23:59:55;3.50;;;1.90;;
